• Join FlightAware (Why Join?)
  • Login
  • US Flag 
12:24PM EDT


 

Airport Tracker/Info


-or-


 

Live Flight TrackerFlight Track Log ✈ SKW7806 ✈ 22-Apr-2012 ✈ KCOD - KSLC

Flight Track Log - Related Links

Times and Time Zones

All times are in EDT time to prevent confusion due to time zone crossing. See the SKW7806 flight status page for this flight to view local times or setup timezone preferences in your user account.

Time Position Orientation Groundspeed Altitude Reporting Facility
EDT Latitude Longitude Course Direction KTS MPH feet Rate Location/Type
02:47PM 44.6005 -108.9500 210° Southwest  Level FlightAware Approximate
02:48PM 44.5197 -109.0346 38° Northeast  Level FlightAware Approximate
02:49PM 44.4388 -109.1190 37° Northeast  Level FlightAware Approximate
02:50PM 44.5869 -108.9608 149° Southeast 202 232 8,200  Level Salt Lake Center
02:51PM 44.5258 -108.9086 208° Southwest 265 305 10,400 1,980 Climbing Salt Lake Center
02:52PM 44.4522 -108.9644 220° Southwest 310 357 12,300 2,160 Climbing Salt Lake Center
02:53PM 44.3708 -109.0608 222° Southwest 343 395 14,900 2,040 Climbing Salt Lake Center
02:54PM 44.3003 -109.1506 228° Southwest 355 409 16,600 1,740 Climbing Salt Lake Center
02:55PM 44.2225 -109.2697 230° Southwest 372 428 18,500 1,500 Climbing Salt Lake Center
02:56PM 44.1586 -109.3772 219° Southwest 386 444 19,700 1,320 Climbing Salt Lake Center
02:57PM 44.0658 -109.4819 220° Southwest 403 464 21,300 1,440 Climbing Salt Lake Center
02:58PM 43.9836 -109.5778 220° Southwest 404 465 22,700 1,380 Climbing Salt Lake Center
02:59PM 43.8867 -109.6917 220° Southwest 406 467 24,200 1,200 Climbing Salt Lake Center
03:00PM 43.8014 -109.7892 220° Southwest 411 473 25,300 1,020 Climbing Salt Lake Center
03:01PM 43.7017 -109.9042 220° Southwest 416 479 26,400 960 Climbing Salt Lake Center
03:02PM 43.6139 -110.0047 220° Southwest 422 486 27,300 900 Climbing Salt Lake Center
03:03PM 43.5114 -110.1225 219° Southwest 427 491 28,300 780 Climbing Salt Lake Center
03:04PM 43.4136 -110.2328 220° Southwest 428 493 29,000 540 Climbing Salt Lake Center
03:06PM 43.3239 -110.3350 219° Southwest 434 499 29,500 480 Climbing Salt Lake Center
03:07PM 43.2269 -110.4439 220° Southwest 439 505 30,000 240 Climbing Salt Lake Center
03:08PM 43.1169 -110.5686 219° Southwest 452 520 30,000  Level Salt Lake Center
03:09PM 43.0228 -110.6736 219° Southwest 455 524 30,000  Level Salt Lake Center
03:10PM 42.9108 -110.7978 219° Southwest 461 531 30,000  Level Salt Lake Center
03:11PM 42.8147 -110.9050 219° Southwest 463 533 30,000  Level Salt Lake Center
03:12PM 42.7189 -111.0103 219° Southwest 463 533 30,000  Level Salt Lake Center
03:13PM 42.6139 -111.1256 219° Southwest 464 534 30,000  Level Salt Lake Center
03:14PM 42.4956 -111.2550 215° Southwest 465 535 30,000  Level Salt Lake Center
03:15PM 42.3886 -111.3556 212° Southwest 469 540 30,000  Level Salt Lake Center
03:16PM 42.2775 -111.4489 212° Southwest 466 536 30,000  Level Salt Lake Center
03:17PM 42.1667 -111.5419 212° Southwest 467 537 30,000  Level Salt Lake Center
03:18PM 42.0561 -111.6353 212° Southwest 466 536 30,000 -960 Level Salt Lake Center
03:19PM 41.9458 -111.7278 212° Southwest 464 534 28,000 -2,640 Descending Salt Lake Center
03:20PM 41.8206 -111.8308 212° Southwest 455 524 24,500 -3,180 Descending Salt Lake Center
03:21PM 41.7206 -111.9144 212° Southwest 427 491 21,500 -2,640 Descending Salt Lake Center
03:22PM 41.6239 -111.9953 206° Southwest 413 475 19,100 -1,440 Descending Salt Lake Center
03:23PM 41.5567 -112.0394 190° South 387 445 19,000 -480 Descending Salt Lake Center
03:24PM 41.4597 -112.0611 190° South 370 426 18,400 -1,140 Descending Salt Lake Center
03:25PM 41.3589 -112.0842 190° South 365 420 16,900 -1,560 Descending Salt Lake Center
03:26PM 41.2597 -112.1067 190° South 360 414 15,300 -1,320 Descending Salt Lake Center
03:26PM 41.2128 -112.1175 190° South 355 409 14,900 -1,200 Descending Salt Lake Center
03:27PM 41.1169 -112.1392 179° South 350 403 13,500 -1,380 Descending Salt Lake Center
03:28PM 41.0253 -112.1372 170° South 339 390 12,100 -1,200 Descending Salt Lake Center
03:29PM 40.9375 -112.1175 173° South 323 372 11,000 -540 Descending Salt Lake Center
03:30PM 40.8669 -112.1058 175° South 254 292 11,000 -60 Level Salt Lake Center
03:31PM 40.7861 -112.0961 175° South 248 285 10,900 -720 Descending Salt Lake Center
03:32PM 40.7194 -112.0878 160° South 241 277 9,600 -1,200 Descending Salt Lake Center
03:34PM 40.6642 -112.0611 78° East 219 252 8,500 -1,320 Descending Salt Lake Center
03:35PM 40.6750 -111.9942 North 198 228 6,900 -1,440 Descending Salt Lake Center
03:36PM 40.7194 -111.9883 355° North 154 177 5,600 -1,200 Descending Salt Lake Center
03:37PM 40.7667 -111.9939 355° North 145 167 4,500 -1,080 Descending Salt Lake Center